Time;durP1;ratioP1;P1;durP2;ratioP2;P2;SDS_P1;SDS_P2;PMS_P1;PMS_P2;Temp;Humidity;BMP_temperature;BMP_pressure;BME280_temperature;BME280_humidity;BME280_pressure;Samples;Min_cycle;Max_cycle;Signal;HPM_P1;HPM_P2
2022/05/14 00:08:23;;;;;;;5.50;3.50;;;;;;;8.37;64.98;99628.03;426886;1284;143021;-47
2022/05/14 00:18:29;;;;;;;3.80;3.30;;;;;;;8.15;65.64;99633.94;427251;1284;142727;-48
2022/05/14 00:28:35;;;;;;;8.40;4.00;;;;;;;7.93;66.12;99640.81;426435;1284;144142;-46
2022/05/14 00:38:41;;;;;;;4.50;4.00;;;;;;;7.71;66.35;99647.33;426855;1284;142570;-49
2022/05/14 00:48:48;;;;;;;11.80;5.40;;;;;;;7.54;66.97;99653.77;427385;1282;142252;-47
2022/05/14 00:59:00;;;;;;;10.00;5.10;;;;;;;7.37;67.47;99647.79;426514;1284;141878;-47
2022/05/14 01:09:07;;;;;;;6.10;5.00;;;;;;;7.23;67.98;99650.77;427523;1284;142493;-48
2022/05/14 01:19:13;;;;;;;6.50;4.60;;;;;;;7.10;68.10;99638.35;427535;1284;142075;-50
2022/05/14 01:29:22;;;;;;;4.80;4.30;;;;;;;6.91;68.37;99631.73;426721;1284;142034;-55
2022/05/14 01:39:28;;;;;;;8.50;5.20;;;;;;;6.76;68.87;99641.16;427637;1284;142344;-52
2022/05/14 01:49:33;;;;;;;5.50;5.00;;;;;;;6.65;69.43;99643.79;426792;1284;145466;-54
2022/05/14 01:59:39;;;;;;;6.50;5.20;;;;;;;6.51;69.91;99639.38;427181;1284;141089;-52
2022/05/14 02:09:45;;;;;;;6.20;5.00;;;;;;;6.41;70.18;99631.45;427835;1284;141907;-51
2022/05/14 02:19:51;;;;;;;6.30;4.60;;;;;;;6.35;70.32;99634.89;427119;1284;147345;-52
2022/05/14 02:29:57;;;;;;;5.60;4.50;;;;;;;6.26;70.40;99638.75;427551;1284;141772;-50
2022/05/14 02:40:03;;;;;;;5.70;5.20;;;;;;;6.43;70.82;99639.02;427243;1284;142321;-53
2022/05/14 02:50:11;;;;;;;7.90;5.90;;;;;;;6.76;70.84;99638.23;427238;1284;142502;-53
2022/05/14 03:00:20;;;;;;;6.70;5.90;;;;;;;7.02;70.90;99633.99;428210;1283;142850;-51
2022/05/14 03:10:26;;;;;;;9.10;7.10;;;;;;;7.35;71.07;99633.30;427605;1284;141040;-54
2022/05/14 03:20:32;;;;;;;10.00;6.90;;;;;;;7.66;70.90;99627.02;427696;1284;142735;-52
2022/05/14 03:30:38;;;;;;;9.60;7.20;;;;;;;8.00;70.61;99619.53;427615;1284;145475;-57
2022/05/14 03:40:44;;;;;;;10.30;7.70;;;;;;;8.34;70.30;99630.08;426497;1284;142716;-53
2022/05/14 03:50:50;;;;;;;9.10;7.70;;;;;;;8.71;69.98;99625.73;427380;1281;142862;-54
2022/05/14 04:00:56;;;;;;;7.60;6.80;;;;;;;9.06;69.60;99631.09;428208;1283;142262;-55
2022/05/14 04:11:01;;;;;;;7.20;6.30;;;;;;;9.30;68.93;99632.48;426403;1284;146348;-54
2022/05/14 04:21:08;;;;;;;10.10;7.30;;;;;;;9.55;68.44;99633.69;427006;1284;145080;-51
2022/05/14 04:31:14;;;;;;;11.30;7.40;;;;;;;9.72;68.01;99627.99;427349;1283;142160;-54
2022/05/14 04:41:20;;;;;;;10.70;6.00;;;;;;;9.90;67.45;99626.35;426735;1283;145936;-53
2022/05/14 04:51:26;;;;;;;9.70;6.10;;;;;;;10.13;67.28;99623.92;427017;1285;142720;-53
2022/05/14 05:01:31;;;;;;;5.60;5.00;;;;;;;10.43;66.90;99625.27;426260;1284;142253;-52
2022/05/14 05:11:37;;;;;;;6.80;5.20;;;;;;;10.81;66.28;99634.40;427536;1284;141595;-54
2022/05/14 05:21:43;;;;;;;9.20;5.00;;;;;;;11.66;65.68;99628.51;427469;1283;142692;-52
2022/05/14 05:31:49;;;;;;;5.00;4.10;;;;;;;12.68;63.59;99632.73;426677;1282;143488;-55
2022/05/14 05:41:58;;;;;;;5.90;3.30;;;;;;;18.59;58.47;99625.84;427924;1284;143245;-56
2022/05/14 05:52:05;;;;;;;5.30;3.20;;;;;;;17.39;53.79;99621.35;427724;1284;141866;-55
2022/05/14 06:02:10;;;;;;;3.90;2.60;;;;;;;21.38;51.97;99603.23;426577;1284;143685;-62
2022/05/14 06:12:16;;;;;;;10.30;2.90;;;;;;;24.24;44.06;99593.94;427901;1283;141481;-56
2022/05/14 06:22:23;;;;;;;6.00;2.60;;;;;;;25.89;41.56;99592.46;427490;1284;144970;-56
2022/05/14 06:32:29;;;;;;;5.80;2.40;;;;;;;25.15;38.92;99578.97;426355;1283;140923;-56
2022/05/14 06:42:37;;;;;;;5.90;4.30;;;;;;;27.93;36.45;99557.95;427446;1284;141068;-60
2022/05/14 06:52:47;;;;;;;5.10;1.50;;;;;;;31.15;32.23;99539.33;427251;1284;140572;-55
2022/05/14 07:06:37;;;;;;;3.60;1.80;;;;;;;32.93;29.70;99531.04;427640;1283;142241;-56
2022/05/14 07:13:20;;;;;;;4.10;1.70;;;;;;;38.02;25.49;99527.74;427438;1284;146419;-58
2022/05/14 07:23:26;;;;;;;5.40;1.80;;;;;;;34.72;23.35;99532.75;427086;1284;146370;-57
2022/05/14 07:33:33;;;;;;;4.60;1.60;;;;;;;30.59;25.15;99537.52;427314;1284;141727;-58
2022/05/14 07:43:42;;;;;;;5.20;2.70;;;;;;;31.68;25.04;99537.45;427363;1283;141681;-57
2022/05/14 07:53:48;;;;;;;6.20;2.00;;;;;;;28.55;25.65;99534.08;427761;1284;141387;-57
2022/05/14 08:03:54;;;;;;;10.50;3.30;;;;;;;24.04;29.22;99544.48;427404;1284;141803;-53
2022/05/14 08:14:00;;;;;;;6.90;2.70;;;;;;;21.33;32.56;99552.48;427553;1283;141945;-58
2022/05/14 08:34:32;;;;;;;5.40;2.60;;;;;;;21.32;35.58;99535.77;428069;1284;182793;-58
2022/05/14 08:44:46;;;;;;;10.10;3.50;;;;;;;21.49;34.76;99527.86;427966;1285;141315;-58
2022/05/14 08:55:00;;;;;;;3.20;2.10;;;;;;;20.64;35.87;99533.67;426757;1284;145495;-58
2022/05/14 09:05:09;;;;;;;5.60;2.20;;;;;;;20.89;35.38;99521.63;426977;1284;141501;-58
2022/05/14 09:15:16;;;;;;;4.50;2.20;;;;;;;21.08;34.67;99521.55;427360;1284;143164;-58
2022/05/14 09:25:26;;;;;;;3.90;2.40;;;;;;;20.22;34.18;99525.41;427653;1284;141432;-60
2022/05/14 09:35:34;;;;;;;4.80;2.50;;;;;;;19.11;35.45;99532.20;427140;1284;233861;-55
2022/05/14 09:45:39;;;;;;;;;;;;;;;19.19;36.10;99530.91;427582;1285;142805;-57
2022/05/14 09:56:21;;;;;;;3.70;2.50;;;;;;;19.68;36.54;99527.16;427177;1285;131975;-53
2022/05/14 10:06:37;;;;;;;6.60;2.30;;;;;;;20.53;35.51;99534.15;426028;1284;140702;-57
2022/05/14 10:16:55;;;;;;;5.20;1.70;;;;;;;20.39;35.56;99540.91;426872;1284;141889;-50
2022/05/14 10:27:11;;;;;;;;;;;;;;;20.03;36.73;99541.54;427400;1284;143418;-56
2022/05/14 10:37:28;;;;;;;4.60;2.00;;;;;;;20.33;36.42;99545.54;427268;1285;127487;-55
2022/05/14 10:47:34;;;;;;;8.70;2.00;;;;;;;19.62;37.27;99545.85;427158;1284;141688;-55
2022/05/14 10:57:47;;;;;;;6.00;2.40;;;;;;;19.63;37.62;99541.02;427817;1285;140998;-56
2022/05/14 11:07:53;;;;;;;5.60;2.40;;;;;;;19.58;36.91;99529.80;430151;1285;145638;-50
2022/05/14 11:18:06;;;;;;;5.50;2.20;;;;;;;19.49;36.50;99523.81;427923;1285;147005;-51
2022/05/14 11:28:28;;;;;;;11.40;2.30;;;;;;;18.92;36.96;99524.52;426571;1285;142141;-50
2022/05/14 11:38:37;;;;;;;5.20;2.20;;;;;;;18.82;36.37;99509.91;427025;1284;143284;-49
2022/05/14 11:48:49;;;;;;;3.60;1.80;;;;;;;19.09;35.55;99515.94;427405;1285;146728;-48
2022/05/14 11:59:02;;;;;;;6.90;1.80;;;;;;;19.53;34.74;99521.93;426082;1284;144384;-50
2022/05/14 12:09:23;;;;;;;6.10;2.20;;;;;;;19.29;34.13;99536.40;426388;1284;141306;-52
2022/05/14 12:19:31;;;;;;;7.30;2.60;;;;;;;19.08;34.53;99540.31;434904;1284;142425;-49
2022/05/14 12:29:36;;;;;;;;;;;;;;;19.63;34.40;99549.38;428624;1284;145845;-56
2022/05/14 12:39:45;;;;;;;5.80;1.80;;;;;;;19.39;33.78;99547.98;426888;1284;128123;-56
2022/05/14 12:49:50;;;;;;;5.80;1.80;;;;;;;19.08;34.71;99555.78;426581;1284;141992;-52
2022/05/14 12:59:57;;;;;;;9.80;2.20;;;;;;;19.47;34.70;99558.73;427326;1285;141110;-50
2022/05/14 13:10:04;;;;;;;4.90;2.00;;;;;;;19.52;34.49;99564.86;431204;1284;141849;-54
2022/05/14 13:20:19;;;;;;;9.70;1.70;;;;;;;18.83;35.39;99566.70;427000;1285;142388;-54
2022/05/14 13:30:35;;;;;;;3.20;1.30;;;;;;;18.48;35.55;99569.36;427956;1285;188985;-50
2022/05/14 13:40:46;;;;;;;3.00;1.90;;;;;;;18.49;35.83;99566.58;427068;1284;142784;-52
2022/05/14 13:50:59;;;;;;;4.10;1.70;;;;;;;18.35;35.83;99561.95;428378;1285;141246;-59
2022/05/14 14:01:08;;;;;;;10.30;1.80;;;;;;;18.03;36.25;99562.23;427582;1285;141469;-55
2022/05/14 14:11:14;;;;;;;3.50;1.50;;;;;;;17.97;36.43;99569.49;426705;1285;141706;-57
2022/05/14 14:21:21;;;;;;;6.20;2.00;;;;;;;18.20;36.51;99560.77;427094;1285;141393;-59
2022/05/14 14:31:26;;;;;;;3.70;1.80;;;;;;;18.16;36.71;99563.77;426442;1285;141234;-50
2022/05/14 14:41:32;;;;;;;3.30;1.40;;;;;;;17.95;36.67;99567.92;437455;1284;141743;-54
2022/05/14 14:51:38;;;;;;;4.30;3.00;;;;;;;17.86;36.81;99571.04;429282;1284;144723;-53
2022/05/14 15:01:50;;;;;;;6.70;1.80;;;;;;;17.91;37.18;99578.91;426105;1285;147229;-53
2022/05/14 15:11:57;;;;;;;6.50;3.10;;;;;;;18.17;37.16;99575.73;433161;1285;141833;-50
2022/05/14 15:22:03;;;;;;;6.60;2.20;;;;;;;18.19;37.18;99575.92;431167;1285;145464;-47
2022/05/14 15:32:18;;;;;;;12.30;3.00;;;;;;;18.13;37.46;99571.20;426134;1284;142327;-46
2022/05/14 15:42:28;;;;;;;4.50;2.30;;;;;;;17.78;37.70;99579.06;426553;1285;142028;-46
2022/05/14 15:52:35;;;;;;;7.30;2.50;;;;;;;17.59;38.04;99569.65;426853;1285;143321;-48
2022/05/14 16:02:42;;;;;;;5.00;2.10;;;;;;;17.41;38.13;99561.27;426791;1285;141463;-47
2022/05/14 16:23:31;;;;;;;6.20;1.80;;;;;;;17.38;38.31;99551.30;425890;1287;141617;-50
2022/05/14 16:33:37;;;;;;;8.00;2.20;;;;;;;17.31;38.22;99553.80;426945;1284;145724;-49
2022/05/14 16:43:43;;;;;;;10.90;3.00;;;;;;;17.36;38.33;99548.83;426262;1285;141233;-50
2022/05/14 16:53:53;;;;;;;2.60;1.70;;;;;;;17.19;38.67;99549.27;427513;1285;142793;-50
2022/05/14 17:03:59;;;;;;;6.10;2.50;;;;;;;16.79;39.18;99552.13;426726;1284;145545;-51
2022/05/14 17:14:05;;;;;;;8.10;2.90;;;;;;;16.89;39.58;99553.44;426957;1287;145326;-52
2022/05/14 17:24:11;;;;;;;8.30;2.00;;;;;;;17.03;39.42;99554.39;426532;1287;143639;-51
2022/05/14 17:34:18;;;;;;;6.50;2.70;;;;;;;16.58;39.92;99553.69;426573;1286;141691;-50
2022/05/14 17:44:24;;;;;;;5.90;2.20;;;;;;;16.09;40.68;99559.39;426600;1287;141939;-47
2022/05/14 17:54:30;;;;;;;6.90;2.30;;;;;;;15.75;41.55;99564.22;427323;1287;198950;-50
2022/05/14 18:04:37;;;;;;;7.20;2.90;;;;;;;15.86;42.09;99571.83;426547;1286;141859;-50
2022/05/14 18:14:43;;;;;;;5.80;2.20;;;;;;;15.35;43.04;99576.58;426439;1284;142987;-50
2022/05/14 18:24:49;;;;;;;14.90;3.10;;;;;;;14.71;44.66;99581.09;426745;1284;142329;-48
2022/05/14 18:34:56;;;;;;;6.90;3.50;;;;;;;14.09;46.29;99588.13;425860;1284;142383;-49
2022/05/14 18:45:03;;;;;;;8.50;2.90;;;;;;;13.57;47.50;99589.48;426657;1285;142368;-50
2022/05/14 18:55:11;;;;;;;7.30;2.90;;;;;;;13.14;48.62;99599.70;427222;1284;141281;-53
2022/05/14 19:15:41;;;;;;;9.30;3.40;;;;;;;12.29;50.89;99610.38;427136;1284;142586;-53
2022/05/14 19:25:49;;;;;;;6.40;3.20;;;;;;;12.02;51.87;99618.23;428132;1284;141829;-49
2022/05/14 19:35:59;;;;;;;10.70;3.50;;;;;;;11.74;52.60;99620.62;427273;1284;141373;-49
2022/05/14 19:46:06;;;;;;;5.70;3.40;;;;;;;11.41;53.81;99621.80;431657;1284;142233;-47
2022/05/14 19:56:13;;;;;;;8.40;3.70;;;;;;;11.10;54.86;99627.52;425798;1284;141992;-49
2022/05/14 20:06:20;;;;;;;5.30;3.60;;;;;;;10.79;55.62;99634.77;427032;1287;142056;-49
2022/05/14 20:26:49;;;;;;;14.00;7.20;;;;;;;10.10;57.76;99651.05;426736;1285;140301;-54
2022/05/14 20:36:54;;;;;;;7.50;5.60;;;;;;;9.83;58.64;99655.09;426440;1284;142194;-53
2022/05/14 20:47:00;;;;;;;13.20;7.40;;;;;;;9.60;59.22;99650.89;425859;1284;142573;-50
2022/05/14 20:57:07;;;;;;;13.90;7.90;;;;;;;9.36;60.09;99653.31;426489;1285;142356;-53
2022/05/14 21:07:14;;;;;;;14.20;10.40;;;;;;;9.11;60.81;99655.98;427938;1285;142321;-57
2022/05/14 21:17:20;;;;;;;13.00;10.20;;;;;;;8.91;61.09;99661.44;426556;1285;146333;-58
2022/05/14 21:27:26;;;;;;;13.30;9.50;;;;;;;8.70;61.66;99667.80;426746;1285;142525;-58
2022/05/14 21:37:39;;;;;;;12.50;10.10;;;;;;;8.53;62.19;99672.20;425263;1284;411198;-58
2022/05/14 21:47:45;;;;;;;16.70;10.50;;;;;;;8.35;62.45;99670.50;426916;1285;144194;-59
2022/05/14 21:57:51;;;;;;;18.90;11.90;;;;;;;8.26;63.17;99670.67;427382;1285;142566;-58
2022/05/14 22:07:58;;;;;;;17.30;13.10;;;;;;;8.14;63.48;99676.34;426714;1285;143138;-58
2022/05/14 22:18:03;;;;;;;14.60;10.10;;;;;;;7.96;63.80;99671.70;425940;1284;142017;-59
2022/05/14 22:28:10;;;;;;;17.00;12.40;;;;;;;7.79;64.52;99665.41;426671;1284;144414;-46
2022/05/14 22:38:16;;;;;;;18.20;11.30;;;;;;;7.71;64.87;99670.67;429577;1284;143142;-47
2022/05/14 22:48:23;;;;;;;17.70;9.50;;;;;;;7.63;64.74;99674.40;428348;1284;142194;-47
2022/05/14 22:58:32;;;;;;;14.30;9.30;;;;;;;7.53;65.12;99677.86;427906;1284;143337;-48
2022/05/14 23:08:38;;;;;;;13.80;9.90;;;;;;;7.43;65.31;99675.74;426315;1285;142370;-46
2022/05/14 23:18:44;;;;;;;13.50;7.60;;;;;;;7.36;65.37;99677.30;425964;1285;143454;-54
2022/05/14 23:28:50;;;;;;;13.60;9.50;;;;;;;7.35;65.90;99677.88;425612;1285;144869;-45
2022/05/14 23:38:58;;;;;;;10.40;5.50;;;;;;;7.40;66.06;99684.08;426744;1284;142612;-49
2022/05/14 23:49:04;;;;;;;12.30;6.60;;;;;;;7.45;66.02;99684.71;426786;1284;142341;-48
